Tiempo atmosférico en la estación meteorológica de Polinyà de Xúquer, València/Valencia (12 m.)



Fecha
DESCASC
Temp. máxima en grados centígrados (hora)
DESCASC
Temp. mínima en grados centígrados (hora)
DESCASC
Temp. media en grados centígrados
DESCASC
Racha de viento máxima en m/sg (hora)
DESCASC
Velocidad máxima media en intervalos de 10 minutos(hora)
DESCASC
Precipitaciones diarias en mm
DESCASC
Precipitaciones de 00:00 a 06:00 en mm
DESCASC
Precipitaciones de 06:00 a 12:00 en mm
DESCASC
Precipitaciones de 12:00 a 18:00 en mm
DESCASC
Precipitaciones de 18:00 a 24:00 en mm
DESCASC
25-04-2019 21.7 (18:30) 12.6 (07:00) 17.2 9.17 (14:40) 4.17 (15:10) 0.1 0 0 0.1 0
24-04-2019 23.8 (17:50) 8.7 (03:50) 16.2 13.06 (13:20) 5 (13:50) 0 0 0 0 0
23-04-2019 21.4 (13:30) 9.8 (04:10) 15.6 6.11 (22:20) 2.78 (15:00) 1.1 0 0 0.4 0.7
22-04-2019 15.5 (17:20) 11.2 (00:00) 13.3 7.22 (07:20) 3.06 (15:00) 6.8 2.1 3.1 1.6 0
21-04-2019 14.4 (15:00) 11.4 (00:00) 12.9 14.72 (19:20) 7.22 (16:40) 92.6 0 0 0.6 92
20-04-2019 15 (18:20) 13 (00:00) 14 14.17 (07:00) 7.5 (07:00) 9.1 0 7.6 1.4 0.1
19-04-2019 14.4 (14:00) 11.9 (00:00) 13.1 13.06 (23:30) 7.22 (23:50) 42 8.5 4.8 10.4 18.3
18-04-2019 15.3 (10:50) 11.8 (00:00) 13.6 11.11 (09:50) 6.11 (09:30) 27 0 0 5.1 21.9
17-04-2019 18.2 (13:00) 12.6 (00:00) 15.4 7.22 (13:20) 4.17 (16:30) 0 0 0 0 0
16-04-2019 20.3 (14:30) 9.6 (00:00) 14.9 8.33 (15:10) 3.89 (16:40) 0 0 0 0 0
15-04-2019 17.8 (15:10) 11.9 (00:00) 14.8 6.67 (13:50) 3.61 (13:40) 0 0 0 0 0
14-04-2019 30.5 (16:30) 10.3 (00:00) 20.4 8.61 (09:10) 4.44 (10:50) 0 0 0 0 0
13-04-2019 22.3 (16:30) 8.2 (00:00) 15.2 8.33 (17:40) 3.89 (17:20) 0 0 0 0 0
12-04-2019 21.1 (15:20) 10 (06:10) 15.6 9.17 (18:30) 4.72 (17:10) 0 0 0 0 0
11-04-2019 22.6 (16:10) 9.8 (00:00) 16.2 9.44 (16:20) 4.17 (18:00) 0 0 0 0 0
10-04-2019 21.3 (14:20) 10.6 (00:00) 15.9 8.33 (10:00) 3.33 (03:00) 0.8 0 0 0.7 0.1
09-04-2019 21.4 (16:00) 12.3 (00:00) 16.8 11.39 (12:40) 4.17 (22:10) 0 0 0 0 0
08-04-2019 23.1 (17:20) 12.8 (00:00) 18 9.44 (22:00) 4.17 (18:10) 0.3 0 0.3 0 0
07-04-2019 21.5 (16:40) 9.8 (00:00) 15.7 8.33 (10:50) 3.33 (00:20) 0 0 0 0 0
06-04-2019 15.9 (12:40) 8 (00:00) 11.9 11.39 (18:40) 5.28 (17:50) 3.8 0 0.1 2.9 0.8
05-04-2019 20 (13:00) 6.6 (00:00) 13.3 9.44 (14:50) 4.72 (15:00) 6 0 0 3.7 2.3
04-04-2019 18.3 (13:20) 9.2 (00:00) 13.7 11.11 (16:30) 5.83 (18:20) 0 0 0 0 0
03-04-2019 26 (16:40) 11.6 (08:00) 18.8 10 (20:20) 5 (20:20) 0 0 0 0 0
02-04-2019 22.7 (16:20) 8.2 (00:00) 15.5 8.06 (11:40) 4.44 (16:40) 6.3 0 0 5.7 0.6
01-04-2019 15.5 (18:00) 10.2 (00:00) 12.8 8.06 (00:50) 3.89 (00:10) 9.4 8.2 1.1 0.1 0
31-03-2019 13.1 (17:00) 7.5 (00:00) 10.3 12.78 (20:40) 5.28 (20:10) 29.1 0 12.7 15.1 1.3
30-03-2019 16.1 (16:10) 6.6 (00:00) 11.4 6.94 (12:10) 3.61 (11:50) 0 0 0 0 0
29-03-2019 17.2 (14:00) 4.9 (00:00) 11.1 7.22 (14:10) 3.61 (15:10) 0 0 0 0 0
28-03-2019 19.1 (12:30) 5.7 (00:00) 12.4 7.5 (14:50) 3.89 (17:40) -- -- -- -- --
27-03-2019 18.3 (13:20) 4.2 (00:00) 11.2 11.67 (14:50) 3.89 (14:50) -- -- -- -- --

Gráficas

Temp. máximas Temp. mínimas Temp. medias Precipitaciones Rachas de viento máximas Velocidades máximas media en intervalos de 10 minutos

Datos horarios

Fecha y hora oficial Temperatura (ºC) Velocidad del viento (km/h) Dirección del viento Racha (km/h) Dirección de racha Precipitación (mm) Presión (hPa) Tendencia (hPa) Humedad (%)
2019-04-25 23:00:00 16.3 7 Sudoeste 24 Sur 0 -- -- 39
2019-04-25 22:00:00 16.6 12 Sudoeste 26 Sudoeste 0 -- -- 44
2019-04-25 21:00:00 17.4 8 Sudoeste 26 Sudoeste 0 -- -- 41
2019-04-25 20:00:00 18 6 Sudoeste 27 Sudoeste 0 -- -- 40
2019-04-25 19:00:00 19.9 5 Sudoeste 23 Sudoeste 0 -- -- 34
2019-04-25 18:00:00 20.1 12 Sudoeste 32 Sudoeste 0 -- -- 38
2019-04-25 17:00:00 19.4 6 Sudoeste 26 Sudoeste 0 -- -- 40
2019-04-25 16:00:00 21.5 5 Sudoeste 27 Sudoeste 0 -- -- 39
2019-04-25 15:00:00 18.4 10 Sudoeste 33 Sudoeste 0.1 -- -- 48
2019-04-25 14:00:00 17 9 Sudoeste 21 Sudoeste 0 -- -- 50
2019-04-25 13:00:00 16.7 9 Sudoeste 23 Sudoeste 0 -- -- 53
2019-04-25 12:00:00 17.6 2 Oeste 20 Sudoeste 0 -- -- 50
2019-04-25 11:00:00 17.9 3 Sudoeste 15 Sudoeste 0 -- -- 51
2019-04-25 10:00:00 17 0 Calma 9 Oeste 0 -- -- 57
2019-04-25 09:00:00 15.9 3 Sudoeste 11 Sudoeste 0 -- -- 57
2019-04-25 08:00:00 15.7 3 Oeste 17 Sudoeste 0 -- -- 53
2019-04-25 07:00:00 14 7 Sudoeste 15 Sudoeste 0 -- -- 62
2019-04-25 06:00:00 13.8 3 Sudoeste 8 Sudoeste 0 -- -- 60
2019-04-25 05:00:00 14.4 0 Calma 9 Sudoeste 0 -- -- 57
2019-04-25 04:00:00 16 5 Sudoeste 12 Sudoeste 0 -- -- 50
2019-04-25 03:00:00 16.3 6 Sudoeste 15 Sudoeste 0 -- -- 48
2019-04-25 02:00:00 16.8 6 Sudoeste 16 Sudoeste 0 -- -- 48
2019-04-25 01:00:00 16 4 Sudoeste 15 Sudoeste 0 -- -- 48
2019-04-25 00:00:00 17.7 10 Sudoeste 22 Sudoeste 0 -- -- 45
2019-04-24 23:00:00 16.9 9 Sudoeste 21 Sudoeste 0 -- -- 45
2019-04-24 22:00:00 17.2 8 Sudoeste 25 Sudoeste 0 -- -- 44
2019-04-24 21:00:00 18.7 5 Sudoeste 28 Sudoeste 0 -- -- 40
2019-04-24 20:00:00 20.6 4 Sur 23 Sudoeste 0 -- -- 35
2019-04-24 19:00:00 22 4 Sur 26 Sudoeste 0 -- -- 32
2019-04-24 18:00:00 23.4 9 Sudoeste 25 Sudoeste 0 -- -- 30
2019-04-24 17:00:00 21.9 3 Sudeste 23 Este 0 -- -- 32
2019-04-24 16:00:00 19.7 6 Sudeste 30 Sudoeste 0 -- -- 34
2019-04-24 15:00:00 21.2 13 Sudoeste 32 Sudoeste 0 -- -- 30
2019-04-24 14:00:00 19.9 12 Sudoeste 47 Sudoeste 0 -- -- 31
2019-04-24 13:00:00 18.6 15 Sudoeste 40 Sudoeste 0 -- -- 34
2019-04-24 12:00:00 17.5 16 Sudoeste 35 Sudoeste 0 -- -- 36
2019-04-24 11:00:00 15.5 14 Sudoeste 31 Sudoeste 0 -- -- 40
2019-04-24 10:00:00 14.3 13 Sudoeste 32 Sudoeste 0 -- -- 44
2019-04-24 09:00:00 12.1 12 Sudoeste 27 Sudoeste 0 -- -- 48
2019-04-24 08:00:00 10.9 10 Sudoeste 22 Sudoeste 0 -- -- 53
2019-04-24 07:00:00 10 12 Sudoeste 27 Sudoeste 0 -- -- 55
2019-04-24 06:00:00 9.9 10 Sudoeste 26 Sudoeste 0 -- -- 55
2019-04-24 05:00:00 9.6 7 Sudoeste 19 Sudoeste 0 -- -- 60
2019-04-24 04:00:00 9.1 5 Sudoeste 11 Sudoeste 0 -- -- 65
2019-04-24 03:00:00 9.7 2 Oeste 15 Sudoeste 0 -- -- 61
2019-04-24 02:00:00 9.7 0 Calma 12 Sudoeste 0 -- -- 65
2019-04-24 01:00:00 10.8 4 Sudoeste 12 Sudoeste 0 -- -- 59
2019-04-24 00:00:00 11.2 5 Sudoeste 12 Sudoeste 0 -- -- 60
2019-04-23 23:00:00 11.7 3 Sudoeste 22 Oeste 0 -- -- 60
2019-04-23 22:00:00 12.9 3 Oeste 21 Sudoeste 0 -- -- 60
2019-04-23 21:00:00 13 0 Calma 8 Norte 0.7 -- -- 72
2019-04-23 20:00:00 15.1 6 Nordeste 15 Este 0 -- -- 67
2019-04-23 19:00:00 16.2 5 Este 10 Este 0 -- -- 61
2019-04-23 18:00:00 15.9 4 Nordeste 8 Este 0 -- -- 65
2019-04-23 17:00:00 15.7 4 Sudoeste 10 Sudoeste 0.1 -- -- 64
2019-04-23 16:00:00 15.6 2 Sudoeste 20 Oeste 0.3 -- -- 63
2019-04-23 15:00:00 19.2 10 Este 22 Sudeste 0 -- -- 46
2019-04-23 14:00:00 20.7 9 Este 20 Sudeste 0 -- -- 40
2019-04-23 13:00:00 20.7 0 Calma 15 Sudoeste 0 -- -- 38
2019-04-23 12:00:00 19.8 2 Oeste 18 Sudoeste 0 -- -- 38
2019-04-23 11:00:00 18.3 6 Sudoeste 20 Sudoeste 0 -- -- 41
2019-04-23 10:00:00 13.8 0 Calma 10 Sudoeste 0 -- -- 67
2019-04-23 09:00:00 12.6 0 Calma 13 Sudoeste 0 -- -- 72
2019-04-23 08:00:00 11.2 0 Calma 11 Sudoeste 0 -- -- 81
2019-04-23 07:00:00 10.3 0 Calma -- -- 0 -- -- 81
2019-04-23 06:00:00 10.3 0 Calma -- -- 0 -- -- 81
2019-04-23 05:00:00 10.8 0 Calma -- -- 0 -- -- 81
2019-04-23 04:00:00 10.2 0 Calma 0 Calma 0 -- -- 81
2019-04-23 03:00:00 10.1 0 Calma 5 Sudoeste 0 -- -- 79
2019-04-23 02:00:00 10.9 0 Calma 7 Norte 0 -- -- 78
2019-04-23 01:00:00 12.2 3 Sudoeste 9 Sudoeste 0 -- -- 75
2019-04-23 00:00:00 13.2 2 Sudeste 6 Este 0 -- -- 75
2019-04-22 23:00:00 13.1 2 Sudeste 8 Sudeste 0 -- -- 72
2019-04-22 22:00:00 13.3 0 Calma 5 Sudoeste 0 -- -- 71
2019-04-22 21:00:00 13.9 0 Calma 10 Sudoeste 0 -- -- 66
2019-04-22 20:00:00 14.1 6 Sudoeste 9 Sudoeste 0 -- -- 69
2019-04-22 19:00:00 14.7 0 Calma 6 Este 0 -- -- 68
2019-04-22 18:00:00 15.3 0 Calma 0 Calma 0 -- -- 66
2019-04-22 17:00:00 15.2 0 Calma 10 Sudoeste 0 -- -- 69
2019-04-22 16:00:00 14.1 8 Sudoeste 18 Sudoeste 0 -- -- 75
2019-04-22 15:00:00 13.5 11 Sudoeste 19 Sudoeste 0.1 -- -- 78
2019-04-22 14:00:00 12.9 7 Sudoeste 17 Sudoeste 0.5 -- -- 78
2019-04-22 13:00:00 13.1 0 Calma -- -- 1 -- -- 78
2019-04-22 12:00:00 13.3 0 Calma -- -- 1.4 -- -- 78
2019-04-22 11:00:00 13.2 0 Calma -- -- 1.4 -- -- 78
2019-04-22 10:00:00 13 0 Calma -- -- 0 -- -- 78
2019-04-22 09:00:00 12.8 2 Norte 19 Noroeste 0 -- -- 74
2019-04-22 08:00:00 12.4 0 Calma 26 Norte 0.1 -- -- 74
2019-04-22 07:00:00 11.5 5 Norte 20 Nordeste 0.2 -- -- 83
2019-04-22 06:00:00 11.3 8 Sudoeste 13 Sudoeste 0.2 -- -- 83
2019-04-22 05:00:00 11.3 7 Sudoeste 12 Sudoeste 0 -- -- 83
2019-04-22 04:00:00 11.7 0 Calma 8 Sudoeste 0.2 -- -- 83
2019-04-22 03:00:00 11.9 0 Calma 17 Nordeste 0.6 -- -- 83
2019-04-22 02:00:00 11.6 2 Norte 11 Norte 0.2 -- -- 83
2019-04-22 01:00:00 11.5 0 Calma 17 Norte 0.9 -- -- 83
2019-04-22 00:00:00 11.6 5 Norte 32 Norte 12.5 -- -- 83
2019-04-21 23:00:00 12.3 9 Norte 32 Noroeste 24.9 -- -- 83
2019-04-21 22:00:00 11.5 2 Oeste 22 Sudoeste 33.4 -- -- 83
2019-04-21 21:00:00 11.9 3 Noroeste 35 Nordeste 16.2 -- -- 83
2019-04-21 20:00:00 11.9 12 Norte 53 Norte 5 -- -- 83
2019-04-21 19:00:00 13.1 19 Norte 42 Nordeste 0 -- -- 73
2019-04-21 18:00:00 13.9 14 Norte 37 Nordeste 0 -- -- 67
2019-04-21 17:00:00 12.9 20 Nordeste 52 Nordeste 0 -- -- 72
2019-04-21 16:00:00 13.8 17 Nordeste 40 Norte 0 -- -- 73
2019-04-21 15:00:00 14.3 17 Norte 41 Nordeste 0 -- -- 69
2019-04-21 14:00:00 14 21 Nordeste 41 Norte 0 -- -- 69
2019-04-21 13:00:00 12.7 18 Nordeste 38 Nordeste 0.6 -- -- 80
2019-04-21 12:00:00 12.6 19 Norte 44 Nordeste 0 -- -- 77
2019-04-21 11:00:00 13.9 12 Norte 36 Norte 0 -- -- 63
2019-04-21 10:00:00 14.1 18 Nordeste 35 Nordeste 0 -- -- 60
2019-04-21 09:00:00 14 15 Nordeste 39 Nordeste 0 -- -- 58
2019-04-21 08:00:00 13.6 15 Nordeste 33 Nordeste 0 -- -- 60
2019-04-21 07:00:00 13.3 19 Nordeste 39 Nordeste 0 -- -- 62
2019-04-21 06:00:00 13.9 15 Nordeste 32 Nordeste 0 -- -- 57
2019-04-21 05:00:00 14.1 17 Nordeste 35 Nordeste 0 -- -- 55
2019-04-21 04:00:00 13.8 13 Norte 27 Nordeste 0 -- -- 57
2019-04-21 03:00:00 13.9 16 Nordeste 35 Nordeste 0 -- -- 56
2019-04-21 02:00:00 13.7 13 Nordeste 33 Nordeste 0 -- -- 58
2019-04-21 01:00:00 13.9 18 Nordeste 35 Nordeste 0 -- -- 58
2019-04-21 00:00:00 13.9 20 Nordeste 47 Nordeste 0 -- -- 60
2019-04-20 23:00:00 13.4 21 Nordeste 41 Nordeste 0.1 -- -- 67
2019-04-20 22:00:00 14.2 21 Nordeste 40 Nordeste 0 -- -- 65
2019-04-20 21:00:00 14.2 19 Nordeste 41 Nordeste 0 -- -- 63
2019-04-20 20:00:00 14.4 18 Nordeste 37 Nordeste 0 -- -- 64
2019-04-20 19:00:00 14.7 20 Norte 46 Norte 0 -- -- 61
2019-04-20 18:00:00 14.7 24 Nordeste 48 Nordeste 0 -- -- 61
2019-04-20 17:00:00 14.4 19 Norte 45 Nordeste 0 -- -- 67
2019-04-20 16:00:00 14.4 19 Nordeste 39 Nordeste 0 -- -- 69
2019-04-20 15:00:00 14.3 21 Nordeste 44 Nordeste 0 -- -- 70
2019-04-20 14:00:00 13.9 22 Nordeste 45 Nordeste 0.3 -- -- 73
2019-04-20 13:00:00 13.6 23 Nordeste 50 Nordeste 1.1 -- -- 75
2019-04-20 12:00:00 13.3 21 Nordeste 43 Nordeste 3.2 -- -- 76
2019-04-20 11:00:00 13.5 24 Nordeste 46 Nordeste 2.6 -- -- 73
2019-04-20 10:00:00 13.7 24 Nordeste 45 Nordeste 1.1 -- -- 70
2019-04-20 09:00:00 14.1 23 Nordeste 48 Nordeste 0.4 -- -- 67
2019-04-20 08:00:00 14.4 23 Nordeste 50 Nordeste 0.3 -- -- 66
2019-04-20 07:00:00 14.7 27 Nordeste 51 Nordeste 0 -- -- 63
2019-04-20 06:00:00 14.6 26 Nordeste 45 Nordeste 0 -- -- 66
2019-04-20 05:00:00 14.7 22 Nordeste 43 Nordeste 0 -- -- 66
2019-04-20 04:00:00 14.6 22 Nordeste 46 Nordeste 0 -- -- 68
2019-04-20 03:00:00 14.5 22 Nordeste 49 Nordeste 0 -- -- 70
2019-04-20 02:00:00 14.3 24 Nordeste 47 Nordeste 0 -- -- 73
2019-04-20 01:00:00 14.2 24 Nordeste 46 Norte 0 -- -- 75
2019-04-20 00:00:00 13.7 23 Nordeste 47 Nordeste 2 -- -- 82
2019-04-19 23:00:00 13.9 24 Nordeste 46 Nordeste 2.3 -- -- 82
2019-04-19 22:00:00 14.1 22 Nordeste 46 Nordeste 1 -- -- 82
2019-04-19 21:00:00 13.9 20 Nordeste 40 Nordeste 3.7 -- -- 83
2019-04-19 20:00:00 13.8 19 Nordeste 40 Nordeste 4.8 -- -- 83
2019-04-19 19:00:00 13.8 16 Nordeste 39 Nordeste 4.5 -- -- 83
2019-04-19 18:00:00 13.8 19 Nordeste 38 Nordeste 2.5 -- -- 83
2019-04-19 17:00:00 14 19 Nordeste 36 Nordeste 1.5 -- -- 83
2019-04-19 16:00:00 14.3 19 Nordeste 41 Nordeste 0.2 -- -- 83
2019-04-19 15:00:00 14.2 19 Nordeste 39 Nordeste 0.1 -- -- 83
2019-04-19 14:00:00 14.2 16 Nordeste 29 Nordeste 0.1 -- -- 83
2019-04-19 13:00:00 12.4 4 Sudoeste 16 Sudoeste 6 -- -- 83
2019-04-19 12:00:00 12.4 5 Sudoeste 15 Sudoeste 4.1 -- -- 83
2019-04-19 11:00:00 12.7 0 Calma 8 Sudoeste 0.7 -- -- 83
2019-04-19 10:00:00 12.7 0 Calma 9 Sudoeste 0 -- -- 83
2019-04-19 09:00:00 12.3 0 Calma 12 Sudoeste 0 -- -- 83
2019-04-19 08:00:00 12 4 Sudoeste 10 Sudoeste 0 -- -- 83
2019-04-19 07:00:00 11.9 4 Sudoeste 8 Sudoeste 0 -- -- 83
2019-04-19 06:00:00 12 0 Calma 13 Sudoeste 0.1 -- -- 83
2019-04-19 05:00:00 12 0 Calma 8 Sudoeste 0.2 -- -- 83
2019-04-19 04:00:00 12.2 0 Calma 14 Sudoeste 1.5 -- -- 83
2019-04-19 03:00:00 12.3 0 Calma -- -- 1.3 -- -- 83
2019-04-19 02:00:00 12.4 0 Calma 5 Sudoeste 2.1 -- -- 83
2019-04-19 01:00:00 12.5 0 Calma 11 Sudoeste 3.3 -- -- 83
2019-04-19 00:00:00 12.4 0 Calma 9 Sudoeste 2.7 -- -- 83
2019-04-18 23:00:00 12.1 8 Sudoeste 21 Sudoeste 1 -- -- 83
2019-04-18 22:00:00 11.9 0 Calma 13 Sudoeste 4.2 -- -- 83
2019-04-18 21:00:00 12.1 5 Sudoeste 30 Sudoeste 4.4 -- -- 83
2019-04-18 20:00:00 12.4 9 Sudoeste 29 Sudoeste 7.7 -- -- 83
2019-04-18 19:00:00 14.7 10 Nordeste 33 Nordeste 1.9 -- -- 84
2019-04-18 18:00:00 14.3 15 Nordeste 35 Nordeste 0.7 -- -- 84
2019-04-18 17:00:00 14 15 Nordeste 33 Nordeste 2.3 -- -- 84
2019-04-18 16:00:00 14 17 Nordeste 32 Nordeste 1.4 -- -- 84
2019-04-18 15:00:00 14.3 13 Nordeste 38 Nordeste 0.3 -- -- 82
2019-04-18 14:00:00 14.3 16 Nordeste 36 Norte 0.1 -- -- 82
2019-04-18 13:00:00 14.2 21 Nordeste 38 Nordeste 0.3 -- -- 81
2019-04-18 12:00:00 14.7 16 Nordeste 32 Nordeste 0 -- -- 75
2019-04-18 11:00:00 15 18 Nordeste 35 Nordeste 0 -- -- 73
2019-04-18 10:00:00 15 17 Nordeste 40 Norte 0 -- -- 73
2019-04-18 09:00:00 14.9 19 Nordeste 35 Este 0 -- -- 74
2019-04-18 08:00:00 14.7 14 Nordeste 30 Nordeste 0 -- -- 75
2019-04-18 07:00:00 13.4 0 Calma 15 Nordeste 0 -- -- 78
2019-04-18 06:00:00 12.9 0 Calma 3 Nordeste 0 -- -- 78
2019-04-18 05:00:00 13 0 Calma 5 Sudoeste 0 -- -- 76
2019-04-18 04:00:00 13.6 0 Calma 9 Norte 0 -- -- 72
2019-04-18 03:00:00 14.1 0 Calma 17 Nordeste 0 -- -- 72
2019-04-18 02:00:00 14.2 3 Norte 14 Norte 0 -- -- 72
2019-04-18 01:00:00 14.7 3 Norte 17 Nordeste 0 -- -- 70
2019-04-18 00:00:00 14.6 8 Nordeste 18 Nordeste 0 -- -- 71
2019-04-17 23:00:00 14.8 10 Nordeste 18 Nordeste 0 -- -- 71
2019-04-17 22:00:00 14.7 9 Nordeste 16 Nordeste 0 -- -- 71
2019-04-17 21:00:00 14.8 12 Nordeste 22 Este 0 -- -- 68
2019-04-17 20:00:00 15.2 13 Este 21 Este 0 -- -- 67
2019-04-17 19:00:00 15.6 12 Este 23 Este 0 -- -- 63
2019-04-17 18:00:00 16.7 11 Este 23 Este 0 -- -- 58
2019-04-17 17:00:00 16.8 12 Este 26 Este 0 -- -- 55
2019-04-17 16:00:00 17.3 12 Este 25 Este 0 -- -- 56
2019-04-17 15:00:00 17.6 10 Este 23 Este 0 -- -- 54
2019-04-17 14:00:00 17.7 12 Nordeste 26 Nordeste 0 -- -- 55
2019-04-17 13:00:00 17.8 12 Nordeste 22 Nordeste 0 -- -- 54
2019-04-17 12:00:00 16.6 11 Nordeste 21 Nordeste 0 -- -- 60
2019-04-17 11:00:00 16 9 Nordeste 17 Nordeste 0 -- -- 65
2019-04-17 10:00:00 14.9 2 Norte 11 Nordeste 0 -- -- 69
2019-04-17 09:00:00 14.4 0 Calma 9 Noroeste 0 -- -- 71
2019-04-17 08:00:00 13.9 0 Calma 5 Norte 0 -- -- 73
2019-04-17 07:00:00 13.7 0 Calma 6 Norte 0 -- -- 74
2019-04-17 06:00:00 13.6 0 Calma 0 Calma 0 -- -- 75
2019-04-17 05:00:00 13.5 0 Calma 9 Noroeste 0 -- -- 77
2019-04-17 04:00:00 13.5 0 Calma -- -- 0 -- -- 77
2019-04-17 03:00:00 13.7 0 Calma 6 Norte 0 -- -- 77
2019-04-17 02:00:00 13.4 0 Calma -- -- 0 -- -- 78
2019-04-17 01:00:00 12.7 0 Calma 5 Nordeste 0 -- -- 78
2019-04-17 00:00:00 12.8 0 Calma -- -- 0 -- -- 78
2019-04-16 23:00:00 12.9 0 Calma 8 Norte 0 -- -- 78
2019-04-16 22:00:00 13.2 0 Calma 10 Nordeste 0 -- -- 76
2019-04-16 21:00:00 14.1 8 Nordeste 17 Este 0 -- -- 68
2019-04-16 20:00:00 16 9 Nordeste 19 Este 0 -- -- 60
2019-04-16 19:00:00 17.2 10 Este 22 Este 0 -- -- 51
2019-04-16 18:00:00 18.2 12 Este 24 Este 0 -- -- 50
2019-04-16 17:00:00 19 14 Este 26 Este 0 -- -- 50
2019-04-16 16:00:00 19.4 13 Este 30 Este 0 -- -- 48
2019-04-16 15:00:00 19.6 12 Este 25 Este 0 -- -- 51
2019-04-16 14:00:00 19.4 9 Este 22 Sudeste 0 -- -- 51
2019-04-16 13:00:00 18.5 9 Este 21 Este 0 -- -- 56
2019-04-16 12:00:00 16.6 11 Nordeste 22 Este 0 -- -- 62
2019-04-16 11:00:00 16.5 9 Nordeste 18 Nordeste 0 -- -- 62
2019-04-16 10:00:00 16.3 4 Nordeste 11 Norte 0 -- -- 65
2019-04-16 09:00:00 13.1 0 Calma -- -- 0 -- -- 81
2019-04-16 08:00:00 10.1 0 Calma 6 Nordeste 0 -- -- 82
2019-04-16 07:00:00 10.4 0 Calma 8 Nordeste 0 -- -- 81
2019-04-16 06:00:00 12.3 0 Calma 7 Sudoeste 0 -- -- 80
2019-04-16 05:00:00 12.1 0 Calma 8 Sudoeste 0 -- -- 79
2019-04-16 04:00:00 12.5 0 Calma -- -- 0 -- -- 77
2019-04-16 03:00:00 14.2 0 Calma -- -- 0 -- -- 73
2019-04-16 02:00:00 14.8 0 Calma 8 Norte 0 -- -- 71
2019-04-16 01:00:00 15 0 Calma 6 Norte 0 -- -- 71
2019-04-16 00:00:00 15 0 Calma 12 Norte 0 -- -- 71
2019-04-15 23:00:00 15.1 0 Calma 10 Norte 0 -- -- 70
2019-04-15 22:00:00 15.2 0 Calma 12 Noroeste 0 -- -- 69
2019-04-15 21:00:00 15.3 4 Nordeste 11 Nordeste 0 -- -- 67
2019-04-15 20:00:00 15.7 7 Nordeste 14 Nordeste 0 -- -- 63
2019-04-15 19:00:00 16.6 8 Nordeste 17 Nordeste 0 -- -- 61
2019-04-15 18:00:00 16.8 10 Nordeste 21 Nordeste 0 -- -- 62
2019-04-15 17:00:00 16.6 12 Nordeste 19 Nordeste 0 -- -- 63
2019-04-15 16:00:00 17.1 10 Nordeste 21 Norte 0 -- -- 62
2019-04-15 15:00:00 17.5 9 Nordeste 20 Nordeste 0 -- -- 58
2019-04-15 14:00:00 17 12 Nordeste 24 Nordeste 0 -- -- 60
2019-04-15 13:00:00 16.8 10 Nordeste 22 Nordeste 0 -- -- 60
2019-04-15 12:00:00 16.7 10 Nordeste 20 Norte 0 -- -- 60
2019-04-15 11:00:00 15.9 9 Norte 21 Nordeste 0 -- -- 64
2019-04-15 10:00:00 15.4 6 Norte 15 Norte 0 -- -- 68
2019-04-15 09:00:00 15 4 Norte 15 Norte 0 -- -- 73
2019-04-15 08:00:00 14.5 3 Norte 14 Norte 0 -- -- 80
2019-04-15 07:00:00 13.6 0 Calma -- -- 0 -- -- 80
2019-04-15 06:00:00 13 0 Calma 2 Nordeste 0 -- -- 81
2019-04-15 05:00:00 12.2 0 Calma -- -- 0 -- -- 80
2019-04-15 04:00:00 12.7 0 Calma 2 Sudoeste 0 -- -- 80
2019-04-15 03:00:00 13.2 0 Calma -- -- 0 -- -- 77
2019-04-15 02:00:00 14.5 0 Calma 0 Calma 0 -- -- 75
2019-04-15 01:00:00 15 0 Calma 6 Nordeste 0 -- -- 73
2019-04-15 00:00:00 16.1 2 Nordeste 9 Nordeste 0 -- -- 69
2019-04-14 23:00:00 17.6 2 Norte 21 Norte 0 -- -- 61
2019-04-14 22:00:00 22.9 6 Sudoeste 10 Sudoeste 0 -- -- 35
2019-04-14 21:00:00 23.4 5 Sudoeste 13 Sudoeste 0 -- -- 32
2019-04-14 20:00:00 26.9 4 Sudoeste 22 Sudoeste 0 -- -- 26
2019-04-14 19:00:00 28.4 10 Sudoeste 27 Sudoeste 0 -- -- 25
2019-04-14 18:00:00 29.3 8 Sudoeste 24 Sudoeste 0 -- -- 24
2019-04-14 17:00:00 29 7 Sudoeste 22 Sudoeste 0 -- -- 24
2019-04-14 16:00:00 29.9 3 Sudoeste 17 Sudoeste 0 -- -- 24
2019-04-14 15:00:00 28.8 3 Oeste 21 Sudoeste 0 -- -- 24
2019-04-14 14:00:00 27.8 4 Sudoeste 23 Sudoeste 0 -- -- 23
2019-04-14 13:00:00 26.1 10 Sudoeste 27 Sudoeste 0 -- -- 26
2019-04-14 12:00:00 23.5 13 Sudoeste 27 Sudoeste 0 -- -- 31
2019-04-14 11:00:00 21.6 13 Sudoeste 30 Sudoeste 0 -- -- 34
2019-04-14 10:00:00 19.4 13 Sudoeste 31 Sudoeste 0 -- -- 35
2019-04-14 09:00:00 17.4 14 Sudoeste 29 Sudoeste 0 -- -- 36
2019-04-14 08:00:00 14.9 11 Sudoeste 25 Sudoeste 0 -- -- 39
2019-04-14 07:00:00 14.5 11 Sudoeste 23 Sudoeste 0 -- -- 39
2019-04-14 06:00:00 14.6 13 Sudoeste 25 Sudoeste 0 -- -- 37
2019-04-14 05:00:00 13.7 6 Sudoeste 19 Sudoeste 0 -- -- 41
2019-04-14 04:00:00 12.1 9 Sudoeste 21 Sudoeste 0 -- -- 55
2019-04-14 03:00:00 11.5 6 Sudoeste 14 Sudoeste 0 -- -- 61
2019-04-14 02:00:00 11.4 4 Sudoeste 13 Sudoeste 0 -- -- 63
2019-04-14 01:00:00 10.3 5 Sudoeste 10 Sudoeste 0 -- -- 68
2019-04-14 00:00:00 11.7 5 Sudoeste 11 Sudoeste 0 -- -- 67
2019-04-13 23:00:00 11.7 0 Calma 8 Norte 0 -- -- 65
2019-04-13 22:00:00 12.6 3 Noroeste 11 Este 0 -- -- 57
2019-04-13 21:00:00 14.2 6 Este 14 Este 0 -- -- 50
2019-04-13 20:00:00 17.4 10 Este 21 Este 0 -- -- 42
2019-04-13 19:00:00 19.1 11 Este 28 Este 0 -- -- 34
2019-04-13 18:00:00 19.8 14 Este 30 Este 0 -- -- 34
2019-04-13 17:00:00 21 11 Este 26 Este 0 -- -- 32
2019-04-13 16:00:00 21.9 10 Nordeste 19 Nordeste 0 -- -- 27
2019-04-13 15:00:00 21.6 9 Nordeste 17 Nordeste 0 -- -- 29
2019-04-13 14:00:00 21.2 5 Nordeste 14 Nordeste 0 -- -- 28
2019-04-13 13:00:00 20.8 2 Sudoeste 14 Este 0 -- -- 29
2019-04-13 12:00:00 19.7 0 Calma 12 Noroeste 0 -- -- 32
2019-04-13 11:00:00 17.8 3 Norte 10 Sudoeste 0 -- -- 38
2019-04-13 10:00:00 15.1 4 Sudoeste 12 Sudoeste 0 -- -- 47
2019-04-13 09:00:00 11.6 0 Calma 10 Sudoeste 0 -- -- 61
2019-04-13 08:00:00 9.4 2 Oeste 17 Sudoeste 0 -- -- 63
2019-04-13 07:00:00 11.1 9 Sudoeste 16 Sudoeste 0 -- -- 58
2019-04-13 06:00:00 10.8 7 Sudoeste 15 Oeste 0 -- -- 63
2019-04-13 05:00:00 10.7 8 Sudoeste 15 Sudoeste 0 -- -- 69
2019-04-13 04:00:00 11.6 8 Sudoeste 14 Sudoeste 0 -- -- 68
2019-04-13 03:00:00 8.9 0 Calma 10 Sudoeste 0 -- -- 75
2019-04-13 02:00:00 11.3 0 Calma 0 Calma 0 -- -- 73
2019-04-13 01:00:00 10.9 0 Calma 6 Sudoeste 0 -- -- 74
2019-04-13 00:00:00 11.4 0 Calma 4 Sudoeste 0 -- -- 73
2019-04-12 23:00:00 12 3 Sudoeste 9 Sudoeste 0 -- -- 66
2019-04-12 22:00:00 12.7 2 Noroeste 11 Sudeste 0 -- -- 61
2019-04-12 21:00:00 14.7 8 Este 22 Este 0 -- -- 54
2019-04-12 20:00:00 16.7 11 Este 25 Sudeste 0 -- -- 44
2019-04-12 19:00:00 17.6 12 Sudeste 33 Este 0 -- -- 37
2019-04-12 18:00:00 18.2 15 Este 31 Este 0 -- -- 33
2019-04-12 17:00:00 19.3 12 Sudeste 31 Este 0 -- -- 32
2019-04-12 16:00:00 20.3 12 Este 28 Sudeste 0 -- -- 31
2019-04-12 15:00:00 20.4 3 Sudoeste 10 Sudoeste 0 -- -- 29
2019-04-12 14:00:00 20.5 2 Oeste 13 Sur 0 -- -- 31
2019-04-12 13:00:00 18.9 2 Sudoeste 11 Sudoeste 0 -- -- 32
2019-04-12 12:00:00 17.2 4 Sudoeste 18 Sudoeste 0 -- -- 35
2019-04-12 11:00:00 15.5 10 Sudoeste 22 Sudoeste 0 -- -- 40
2019-04-12 10:00:00 13.4 13 Sudoeste 26 Sudoeste 0 -- -- 46
2019-04-12 09:00:00 12.2 11 Sudoeste 22 Sudoeste 0 -- -- 50
2019-04-12 08:00:00 10.5 8 Sudoeste 17 Sudoeste 0 -- -- 55
2019-04-12 07:00:00 10.3 9 Sudoeste 19 Sudoeste 0 -- -- 55
2019-04-12 06:00:00 10.1 9 Sudoeste 15 Sudoeste 0 -- -- 57
2019-04-12 05:00:00 10.4 9 Sudoeste 13 Sudoeste 0 -- -- 58
2019-04-12 04:00:00 10.7 4 Sudoeste 17 Sudoeste 0 -- -- 61
2019-04-12 03:00:00 11.6 5 Sudoeste 16 Sudoeste 0 -- -- 63
2019-04-12 02:00:00 12.4 5 Sudoeste 15 Sudoeste 0 -- -- 60
2019-04-12 01:00:00 12.4 4 Sudoeste 14 Sudoeste 0 -- -- 65
2019-04-12 00:00:00 12.3 6 Sudoeste 13 Sudoeste 0 -- -- 71
2019-04-11 23:00:00 12.3 7 Sudoeste 13 Sudoeste 0 -- -- 74
2019-04-11 22:00:00 12.8 0 Calma 8 Este 0 -- -- 70
2019-04-11 21:00:00 14.7 7 Este 14 Nordeste 0 -- -- 64
2019-04-11 20:00:00 17.7 6 Este 18 Este 0 -- -- 44
2019-04-11 19:00:00 18.6 11 Este 24 Este 0 -- -- 39
2019-04-11 18:00:00 19 15 Este 28 Sudeste 0 -- -- 35
2019-04-11 17:00:00 20.6 12 Sudeste 34 Este 0 -- -- 34
2019-04-11 16:00:00 22.5 2 Sudeste 17 Sudoeste 0 -- -- 30
2019-04-11 15:00:00 21.5 3 Sudoeste 17 Sudoeste 0 -- -- 31
2019-04-11 14:00:00 20.3 2 Este 16 Sudoeste 0 -- -- 34
2019-04-11 13:00:00 18.5 5 Sudoeste 18 Sudoeste 0 -- -- 37
2019-04-11 12:00:00 16.9 7 Sudoeste 19 Sudoeste 0 -- -- 41
2019-04-11 11:00:00 15.2 7 Sudoeste 22 Sudoeste 0 -- -- 46
2019-04-11 10:00:00 13 12 Sudoeste 24 Sudoeste 0 -- -- 50
2019-04-11 09:00:00 11.6 14 Sudoeste 26 Sudoeste 0 -- -- 54
2019-04-11 08:00:00 10.2 10 Sudoeste 20 Sudoeste 0 -- -- 57
2019-04-11 07:00:00 10 9 Sudoeste 19 Sudoeste 0 -- -- 57
2019-04-11 06:00:00 10.4 10 Sudoeste 20 Sudoeste 0 -- -- 56
2019-04-11 05:00:00 10.7 9 Sudoeste 18 Sudoeste 0 -- -- 55
2019-04-11 04:00:00 11.1 8 Sudoeste 17 Sudoeste 0 -- -- 55
2019-04-11 03:00:00 11.1 8 Sudoeste 15 Sudoeste 0 -- -- 55
2019-04-11 02:00:00 11.4 7 Sudoeste 15 Sudoeste 0 -- -- 54
2019-04-11 01:00:00 11.8 9 Sudoeste 15 Sudoeste 0 -- -- 54
2019-04-11 00:00:00 13.3 4 Sudoeste 13 Sudoeste 0 -- -- 49
2019-04-10 23:00:00 13 4 Sudoeste 12 Sudoeste 0 -- -- 51
2019-04-10 22:00:00 13.4 0 Calma 9 Sudoeste 0 -- -- 53
2019-04-10 21:00:00 14.6 0 Calma 6 Oeste 0 -- -- 48
2019-04-10 20:00:00 15.9 2 Sudoeste 18 Sudoeste 0 -- -- 45
2019-04-10 19:00:00 15.9 4 Noroeste 17 Noroeste 0.1 -- -- 47
2019-04-10 18:00:00 14.4 6 Sudoeste 23 Sudoeste 0.7 -- -- 49
2019-04-10 17:00:00 20 6 Sudoeste 15 Sudoeste 0 -- -- 32
2019-04-10 16:00:00 17.8 4 Sudoeste 28 Sudoeste 0 -- -- 34
2019-04-10 15:00:00 20.5 4 Sudoeste 24 Noroeste 0 -- -- 32
2019-04-10 14:00:00 19.5 4 Noroeste 27 Sur 0 -- -- 34
2019-04-10 13:00:00 19.7 5 Sudoeste 23 Sudoeste 0 -- -- 36
2019-04-10 12:00:00 17.8 4 Sudoeste 22 Sur 0 -- -- 39
2019-04-10 11:00:00 16.3 4 Sudoeste 26 Sudoeste 0 -- -- 43
2019-04-10 10:00:00 14.1 8 Sudoeste 30 Sudoeste 0 -- -- 51
2019-04-10 09:00:00 12.9 7 Sudoeste 23 Sudoeste 0 -- -- 55
2019-04-10 08:00:00 11.1 4 Sudoeste 20 Sudoeste 0 -- -- 58
2019-04-10 07:00:00 10.7 8 Sudoeste 23 Sudoeste 0 -- -- 60
2019-04-10 06:00:00 11.1 9 Sudoeste 27 Sudoeste 0 -- -- 58
2019-04-10 05:00:00 12.2 9 Sudoeste 24 Oeste 0 -- -- 55
2019-04-10 04:00:00 11.3 9 Sudoeste 21 Sudoeste 0 -- -- 57
2019-04-10 03:00:00 12.6 12 Sudoeste 28 Sudoeste 0 -- -- 53
2019-04-10 02:00:00 11.8 9 Sudoeste 20 Sudoeste 0 -- -- 54
2019-04-10 01:00:00 12.9 6 Sudoeste 22 Sudoeste 0 -- -- 51
2019-04-10 00:00:00 12.5 8 Sudoeste 21 Sudoeste 0 -- -- 53
2019-04-09 23:00:00 12.4 12 Sudoeste 35 Sudoeste 0 -- -- 54
2019-04-09 22:00:00 12.7 13 Sudoeste 26 Sudoeste 0 -- -- 57
2019-04-09 21:00:00 14 8 Sudoeste 32 Sudoeste 0 -- -- 57
2019-04-09 20:00:00 14.2 8 Sudoeste 19 Sudoeste 0 -- -- 60
2019-04-09 19:00:00 13.3 8 Sudoeste 23 Noroeste 0 -- -- 66
2019-04-09 18:00:00 17.1 5 Noroeste 37 Sudoeste 0 -- -- 43
2019-04-09 17:00:00 16.3 8 Sudoeste 32 Sudoeste 0 -- -- 40
2019-04-09 16:00:00 21 3 Oeste 30 Sudoeste 0 -- -- 32
2019-04-09 15:00:00 19.2 6 Sudoeste 39 Sur 0 -- -- 34
2019-04-09 14:00:00 19.5 6 Oeste 37 Sudoeste 0 -- -- 34
2019-04-09 13:00:00 17.2 9 Sudoeste 41 Sudoeste 0 -- -- 38
2019-04-09 12:00:00 18.1 4 Oeste 35 Sur 0 -- -- 39
2019-04-09 11:00:00 16.8 3 Oeste 30 Sudoeste 0 -- -- 42
2019-04-09 10:00:00 15 6 Sudoeste 32 Sur 0 -- -- 47
2019-04-09 09:00:00 13.4 11 Sudoeste 30 Sudoeste 0 -- -- 51
2019-04-09 08:00:00 12.6 13 Sudoeste 24 Sudoeste 0 -- -- 51
2019-04-09 07:00:00 12.5 8 Sudoeste 18 Sudoeste 0 -- -- 51
2019-04-09 06:00:00 12.7 9 Sudoeste 22 Sudoeste 0 -- -- 51
2019-04-09 05:00:00 14 6 Sudoeste 15 Sudoeste 0 -- -- 50
2019-04-09 04:00:00 14.7 3 Sudoeste 16 Sudoeste 0 -- -- 49
2019-04-09 03:00:00 15.2 5 Sudoeste 20 Sudoeste 0 -- -- 49
2019-04-09 02:00:00 15.7 6 Sudoeste 17 Sudoeste 0 -- -- 50
2019-04-09 01:00:00 15.8 5 Sudoeste 21 Sudoeste 0 -- -- 50
2019-04-09 00:00:00 16.4 11 Sudoeste 22 Sudoeste 0 -- -- 48
2019-04-08 23:00:00 16.6 5 Sudoeste 20 Sudoeste 0 -- -- 45
2019-04-08 22:00:00 17.6 14 Sudoeste 34 Sudoeste 0 -- -- 43
2019-04-08 21:00:00 17.5 6 Sudoeste 27 Sudoeste 0 -- -- 44
2019-04-08 20:00:00 19.7 11 Sudoeste 30 Sudoeste 0 -- -- 39
2019-04-08 19:00:00 20.7 9 Sudoeste 32 Sudoeste 0 -- -- 37
2019-04-08 18:00:00 22.3 14 Sudoeste 31 Sudoeste 0 -- -- 34
2019-04-08 17:00:00 22.4 9 Sudoeste 25 Sudoeste 0 -- -- 35
2019-04-08 16:00:00 21.4 7 Sudoeste 21 Sudoeste 0 -- -- 39
2019-04-08 15:00:00 21.6 4 Oeste 25 Sudoeste 0 -- -- 38
2019-04-08 14:00:00 21.4 6 Sudoeste 33 Sudoeste 0 -- -- 39
2019-04-08 13:00:00 20.1 7 Sudoeste 31 Sudoeste 0 -- -- 44
2019-04-08 12:00:00 17.5 8 Sudoeste 23 Sudoeste 0 -- -- 53
2019-04-08 11:00:00 15 0 Calma 10 Sudoeste 0.3 -- -- 66
2019-04-08 10:00:00 14.9 4 Sudoeste 10 Sudoeste 0 -- -- 58
2019-04-08 09:00:00 14.5 5 Sudoeste 17 Oeste 0 -- -- 58
2019-04-08 08:00:00 13.9 5 Sudoeste 18 Sudoeste 0 -- -- 58
2019-04-08 07:00:00 13.6 9 Sudoeste 16 Sudoeste 0 -- -- 58
2019-04-08 06:00:00 13.4 3 Sudoeste 10 Sudoeste 0 -- -- 57
2019-04-08 05:00:00 13.4 5 Sudoeste 10 Sudoeste 0 -- -- 57
2019-04-08 04:00:00 13.2 3 Sudoeste 8 Sudoeste 0 -- -- 54
2019-04-08 03:00:00 13.9 3 Sudoeste 12 Sudoeste 0 -- -- 51
2019-04-08 02:00:00 14.4 6 Sudoeste 14 Sudoeste 0 -- -- 48
2019-04-08 01:00:00 15 6 Sudoeste 16 Sudoeste 0 -- -- 43
2019-04-08 00:00:00 15.2 6 Sudoeste 17 Sudoeste 0 -- -- 42
2019-04-07 23:00:00 15.8 7 Sudoeste 18 Sudoeste 0 -- -- 39
2019-04-07 22:00:00 16.3 2 Sudoeste 14 Sudoeste 0 -- -- 33
2019-04-07 21:00:00 15.9 6 Sudoeste 11 Sudoeste 0 -- -- 34
2019-04-07 20:00:00 17.4 0 Calma 13 Noroeste 0 -- -- 30
2019-04-07 19:00:00 18.5 2 Oeste 21 Oeste 0 -- -- 28
2019-04-07 18:00:00 19.5 2 Oeste 22 Sudoeste 0 -- -- 26
2019-04-07 17:00:00 21.2 3 Noroeste 21 Sudoeste 0 -- -- 26
2019-04-07 16:00:00 20.4 4 Noroeste 25 Norte 0 -- -- 28
2019-04-07 15:00:00 19.1 4 Oeste 28 Sudoeste 0 -- -- 28
2019-04-07 14:00:00 18.4 4 Oeste 24 Oeste 0 -- -- 31
2019-04-07 13:00:00 16.3 4 Oeste 22 Sudoeste 0 -- -- 34
2019-04-07 12:00:00 15.7 9 Sudoeste 30 Sudoeste 0 -- -- 38
2019-04-07 11:00:00 13.8 9 Sudoeste 30 Sudoeste 0 -- -- 42
2019-04-07 10:00:00 12.7 8 Sudoeste 27 Sudoeste 0 -- -- 48
2019-04-07 09:00:00 11.5 6 Sudoeste 24 Sudoeste 0 -- -- 50
2019-04-07 08:00:00 10.3 3 Sudoeste 21 Sudoeste 0 -- -- 54
2019-04-07 07:00:00 10.3 5 Sudoeste 21 Sudoeste 0 -- -- 54
2019-04-07 06:00:00 10.3 8 Sudoeste 24 Sudoeste 0 -- -- 54
2019-04-07 05:00:00 9.9 8 Sudoeste 19 Sudoeste 0 -- -- 54
2019-04-07 04:00:00 10.8 6 Sudoeste 22 Sudoeste 0 -- -- 51
2019-04-07 03:00:00 11 8 Sudoeste 25 Sur 0 -- -- 52
2019-04-07 02:00:00 10.6 6 Sudoeste 18 Sudoeste 0 -- -- 54
2019-04-07 01:00:00 10.4 6 Sudoeste 26 Sudoeste 0 -- -- 54
2019-04-07 00:00:00 10.6 7 Sudoeste 25 Sudoeste 0 -- -- 55
2019-04-06 23:00:00 10.8 12 Sudoeste 26 Sudoeste 0.1 -- -- 57
2019-04-06 22:00:00 10.3 10 Sudoeste 18 Sudoeste 0 -- -- 66
2019-04-06 21:00:00 10.2 5 Sudoeste 14 Sudoeste 0.7 -- -- 72
2019-04-06 20:00:00 13.3 0 Calma 25 Sudoeste 0 -- -- 47
2019-04-06 19:00:00 14.1 13 Sudoeste 41 Sudoeste 0 -- -- 43
2019-04-06 18:00:00 13.3 18 Sudoeste 41 Sudoeste 0 -- -- 47
2019-04-06 17:00:00 12.8 7 Sudoeste 27 Sudoeste 1.7 -- -- 56
2019-04-06 16:00:00 13.8 13 Sudoeste 27 Sudoeste 0.1 -- -- 56
2019-04-06 15:00:00 10.8 8 Sudoeste 27 Sudoeste 1.1 -- -- 69
2019-04-06 14:00:00 15.1 0 Calma 28 Sudoeste 0 -- -- 38
2019-04-06 13:00:00 14.7 9 Sudoeste 35 Sudoeste 0 -- -- 37
2019-04-06 12:00:00 14.2 6 Sudoeste 32 Sudoeste 0 -- -- 39
2019-04-06 11:00:00 13.7 8 Sudoeste 33 Sudoeste 0 -- -- 40
2019-04-06 10:00:00 12.1 6 Sudoeste 31 Sudoeste 0.1 -- -- 45
2019-04-06 09:00:00 10.6 4 Oeste 21 Sudoeste 0 -- -- 55
2019-04-06 08:00:00 8.5 4 Sudoeste 18 Sudoeste 0 -- -- 60
2019-04-06 07:00:00 9.1 7 Sudoeste 19 Sudoeste 0 -- -- 57
2019-04-06 06:00:00 9.7 10 Sudoeste 22 Sudoeste 0 -- -- 55
2019-04-06 05:00:00 8.6 0 Calma 11 Sudoeste 0 -- -- 60
2019-04-06 04:00:00 8.4 5 Sudoeste 29 Sudoeste 0 -- -- 60
2019-04-06 03:00:00 8.8 10 Sudoeste 23 Sudoeste 0 -- -- 58
2019-04-06 02:00:00 8.6 9 Sudoeste 17 Sudoeste 0 -- -- 64
2019-04-06 01:00:00 8.5 6 Sudoeste 16 Sudoeste 0 -- -- 65
2019-04-06 00:00:00 9.4 8 Sudoeste 14 Sudoeste 0 -- -- 65
2019-04-05 23:00:00 8.9 0 Calma 12 Sudoeste 0 -- -- 77
2019-04-05 22:00:00 9.7 6 Sudoeste 12 Sur 0 -- -- 81
2019-04-05 21:00:00 10.2 3 Sudoeste 12 Sudoeste 0 -- -- 81
2019-04-05 20:00:00 10.5 0 Calma 7 Sudoeste 0 -- -- 81
2019-04-05 19:00:00 10.4 3 Sudoeste 21 Sudoeste 2.3 -- -- 81
2019-04-05 18:00:00 10.5 8 Sudoeste 22 Sudoeste 2.2 -- -- 77
2019-04-05 17:00:00 11.7 0 Calma 27 Norte 1.5 -- -- 72
2019-04-05 16:00:00 15 6 Este 26 Este 0 -- -- 51
2019-04-05 15:00:00 17.3 17 Este 34 Este 0 -- -- 40
2019-04-05 14:00:00 17.9 14 Este 32 Este 0 -- -- 40
2019-04-05 13:00:00 20 4 Este 18 Sudoeste 0 -- -- 32
2019-04-05 12:00:00 17.8 5 Sudoeste 20 Sudoeste 0 -- -- 35
2019-04-05 11:00:00 15 8 Sudoeste 20 Sudoeste 0 -- -- 43
2019-04-05 10:00:00 13.4 11 Sudoeste 21 Sudoeste 0 -- -- 52
2019-04-05 09:00:00 11.5 3 Sudoeste 15 Sudoeste 0 -- -- 64
2019-04-05 08:00:00 9.2 0 Calma 10 Oeste 0 -- -- 78
2019-04-05 07:00:00 7 0 Calma 3 Sudoeste 0 -- -- 80
2019-04-05 06:00:00 6.9 0 Calma -- -- 0 -- -- 79
2019-04-05 05:00:00 6.8 0 Calma -- -- 0 -- -- 78
2019-04-05 04:00:00 8.3 0 Calma -- -- 0 -- -- 74
2019-04-05 03:00:00 8.4 0 Calma -- -- 0 -- -- 72
2019-04-05 02:00:00 9.1 0 Calma 10 Sudoeste 0 -- -- 68
2019-04-05 01:00:00 11.4 6 Sudoeste 11 Sudoeste 0 -- -- 61
2019-04-05 00:00:00 10.4 0 Calma 7 Sudoeste 0 -- -- 65
2019-04-04 23:00:00 12 4 Sudoeste 17 Sudoeste 0 -- -- 57
2019-04-04 22:00:00 11.4 0 Calma 13 Este 0 -- -- 62
2019-04-04 21:00:00 12.8 7 Sudeste 28 Este 0 -- -- 58
2019-04-04 20:00:00 14 13 Sudeste 36 Este 0 -- -- 54
2019-04-04 19:00:00 15 17 Este 39 Este 0 -- -- 52
2019-04-04 18:00:00 15.5 17 Este 38 Este 0 -- -- 48
2019-04-04 17:00:00 15.7 20 Este 40 Este 0 -- -- 42
2019-04-04 16:00:00 16.8 15 Este 32 Este 0 -- -- 35
2019-04-04 15:00:00 17.9 9 Sudeste 28 Este 0 -- -- 29
2019-04-04 14:00:00 17.9 4 Sudoeste 16 Sudoeste 0 -- -- 26
2019-04-04 13:00:00 18 3 Noroeste 21 Oeste 0 -- -- 27
2019-04-04 12:00:00 15.5 2 Sudoeste 13 Norte 0 -- -- 31
2019-04-04 11:00:00 14.1 2 Oeste 15 Noroeste 0 -- -- 35
2019-04-04 10:00:00 12.5 0 Calma 12 Sudoeste 0 -- -- 48
2019-04-04 09:00:00 10.5 0 Calma 6 Sudoeste 0 -- -- 66
2019-04-04 08:00:00 9.3 0 Calma 6 Sudoeste 0 -- -- 68
2019-04-04 07:00:00 9.6 0 Calma 9 Sudoeste 0 -- -- 68
2019-04-04 06:00:00 10.7 0 Calma 14 Este 0 -- -- 63
2019-04-04 05:00:00 11.5 6 Sudeste 16 Sudeste 0 -- -- 59
2019-04-04 04:00:00 11.4 4 Sudeste 13 Este 0 -- -- 60
2019-04-04 03:00:00 10.9 0 Calma 14 Este 0 -- -- 61
2019-04-04 02:00:00 11.7 9 Este 19 Nordeste 0 -- -- 60
2019-04-04 01:00:00 12.4 10 Este 18 Este 0 -- -- 66
2019-04-04 00:00:00 11.8 0 Calma 13 Este 0 -- -- 67
2019-04-03 23:00:00 12.7 4 Este 24 Este 0 -- -- 65
2019-04-03 22:00:00 13.3 5 Este 23 Este 0 -- -- 68
2019-04-03 21:00:00 13.9 11 Este 36 Nordeste 0 -- -- 68
2019-04-03 20:00:00 20.4 4 Norte 22 Nordeste 0 -- -- 32
2019-04-03 19:00:00 22.3 3 Sudoeste 22 Sudoeste 0 -- -- 27
2019-04-03 18:00:00 24.2 3 Oeste 20 Sudoeste 0 -- -- 27
2019-04-03 17:00:00 23.7 3 Sudoeste 17 Sudoeste 0 -- -- 27
2019-04-03 16:00:00 24 3 Sudoeste 27 Sudoeste 0 -- -- 28
2019-04-03 15:00:00 22.6 5 Sudoeste 22 Sudoeste 0 -- -- 30
2019-04-03 14:00:00 22.7 5 Sudoeste 24 Sudoeste 0 -- -- 29
2019-04-03 13:00:00 21.9 4 Sudoeste 26 Sudoeste 0 -- -- 34
2019-04-03 12:00:00 20 2 Sudoeste 21 Sudoeste 0 -- -- 41
2019-04-03 11:00:00 17.7 8 Sudoeste 21 Sudoeste 0 -- -- 44
2019-04-03 10:00:00 15.4 5 Sudoeste 22 Sudoeste 0 -- -- 55
2019-04-03 09:00:00 13.5 6 Sudoeste 21 Sudoeste 0 -- -- 63
2019-04-03 08:00:00 11.8 9 Sudoeste 18 Sudoeste 0 -- -- 67
2019-04-03 07:00:00 12 6 Sudoeste 18 Sudoeste 0 -- -- 67
2019-04-03 06:00:00 12.1 5 Sudoeste 15 Sudoeste 0 -- -- 68
2019-04-03 05:00:00 12.2 8 Sudoeste 16 Sudoeste 0 -- -- 68
2019-04-03 04:00:00 12.2 3 Sudoeste 15 Sudoeste 0 -- -- 71
2019-04-03 03:00:00 12.5 7 Sudoeste 17 Sudoeste 0 -- -- 71
2019-04-03 02:00:00 12.5 10 Sudoeste 15 Sudoeste 0 -- -- 72
2019-04-03 01:00:00 13 6 Sudoeste 14 Sudoeste 0 -- -- 72
2019-04-03 00:00:00 12.1 5 Sudoeste 12 Sudoeste 0 -- -- 79
2019-04-02 23:00:00 12.4 0 Calma 10 Sudoeste 0 -- -- 78
2019-04-02 22:00:00 13.2 0 Calma 8 Sudoeste 0 -- -- 78
2019-04-02 21:00:00 13.6 3 Sudoeste 8 Sudoeste 0 -- -- 76
2019-04-02 20:00:00 14.2 0 Calma 18 Sudeste 0 -- -- 75
2019-04-02 19:00:00 14.3 6 Sudeste 18 Este 0.6 -- -- 77
2019-04-02 18:00:00 14.8 8 Nordeste 26 Este 5.7 -- -- 76
2019-04-02 17:00:00 19.1 16 Este 29 Este -- -- -- 45
2019-04-02 16:00:00 22.3 0 Calma 13 Sudoeste -- -- -- 35
2019-04-02 15:00:00 20.8 5 Sudoeste 15 Sudoeste -- -- -- 39
2019-04-02 14:00:00 19.4 4 Sudoeste 20 Sudoeste -- -- -- 43
2019-04-02 13:00:00 19.1 10 Sudoeste 26 Sudoeste -- -- -- 43
2019-04-02 12:00:00 18.8 8 Sudoeste 29 Sudoeste -- -- -- 45
2019-04-02 11:00:00 16.4 13 Sudoeste 26 Sudoeste -- -- -- 53
2019-04-02 10:00:00 13.1 5 Sudoeste 13 Sudoeste -- -- -- 73
2019-04-02 09:00:00 11.6 6 Sudoeste 13 Sudoeste -- -- -- 81
2019-04-02 08:00:00 10 5 Sudoeste 9 Sudoeste -- -- -- 82
2019-04-02 07:00:00 10.4 6 Sudoeste 13 Sudoeste -- -- -- 82
2019-04-02 06:00:00 9.9 3 Sudoeste 10 Sur -- -- -- 82
2019-04-02 05:00:00 8.5 0 Calma 4 Oeste -- -- -- 81
2019-04-02 04:00:00 9.6 2 Sudoeste 5 Sudoeste -- -- -- 81
2019-04-02 03:00:00 9.4 0 Calma 5 Sudoeste -- -- -- 79
2019-04-02 02:00:00 10.9 2 Sudoeste 10 Sudoeste -- -- -- 78
2019-04-02 01:00:00 11.9 5 Sudoeste 10 Sudoeste -- -- -- 78
2019-04-02 00:00:00 11.7 6 Sudoeste 10 Sudoeste -- -- -- 80
2019-04-01 23:00:00 10.5 0 Calma 6 Sudoeste -- -- -- 79
2019-04-01 22:00:00 11 0 Calma 4 Sudoeste -- -- -- 76
2019-04-01 21:00:00 12.1 0 Calma 6 Sudeste -- -- -- 73
2019-04-01 20:00:00 13.6 0 Calma 9 Sudeste -- -- -- 65
2019-04-01 19:00:00 14.8 3 Sudeste 12 Sudeste -- -- -- 58
2019-04-01 18:00:00 15.5 5 Este 13 Este -- -- -- 56
2019-04-01 17:00:00 15.2 5 Este 12 Nordeste -- -- -- 57
2019-04-01 16:00:00 14.7 7 Nordeste 14 Nordeste -- -- -- 59
2019-04-01 15:00:00 14.2 6 Norte 17 Norte -- -- -- 59
2019-04-01 14:00:00 13.9 6 Norte 16 Nordeste -- -- -- 61
2019-04-01 13:00:00 13.6 9 Nordeste 18 Nordeste -- -- -- 64
2019-04-01 12:00:00 12.9 9 Nordeste 21 Nordeste -- -- -- 70
2019-04-01 11:00:00 12.2 6 Norte 18 Nordeste -- -- -- 80
2019-04-01 10:00:00 12.3 8 Norte 22 Norte -- -- -- 83
2019-04-01 09:00:00 12.5 9 Norte 21 Nordeste -- -- -- 84
2019-04-01 08:00:00 12 6 Norte 22 Norte -- -- -- 84
2019-04-01 07:00:00 11.8 8 Norte 23 Norte -- -- -- 84
2019-04-01 06:00:00 11.9 4 Norte 20 Norte -- -- -- 84
2019-04-01 05:00:00 11.5 4 Norte 28 Norte -- -- -- 83
2019-04-01 04:00:00 11.2 4 Norte 17 Noroeste -- -- -- 83
2019-04-01 03:00:00 11.1 6 Norte 19 Norte -- -- -- 83
2019-04-01 02:00:00 11.2 7 Norte 25 Norte -- -- -- 82
2019-04-01 01:00:00 11.6 11 Norte 29 Norte -- -- -- 82
2019-04-01 00:00:00 11.8 13 Norte 38 Nordeste -- -- -- 81
2019-03-31 23:00:00 12 13 Norte 41 Norte -- -- -- 82
2019-03-31 22:00:00 12.5 19 Norte 39 Norte -- -- -- 83
2019-03-31 21:00:00 12.6 18 Nordeste 46 Norte -- -- -- 83
2019-03-31 20:00:00 12.7 19 Nordeste 45 Nordeste -- -- -- 83
2019-03-31 19:00:00 12.8 18 Nordeste 33 Nordeste -- -- -- 83
2019-03-31 18:00:00 12.8 16 Nordeste 31 Nordeste -- -- -- 83
2019-03-31 17:00:00 13.1 12 Nordeste 29 Nordeste -- -- -- 83
2019-03-31 16:00:00 12.9 9 Nordeste 35 Nordeste -- -- -- 84
2019-03-31 15:00:00 12.3 16 Nordeste 30 Nordeste -- -- -- 84
2019-03-31 14:00:00 12 14 Nordeste 28 Nordeste -- -- -- 84
2019-03-31 13:00:00 12 14 Nordeste 28 Nordeste -- -- -- 84
2019-03-31 12:00:00 11 0 Calma 13 Norte -- -- -- 84
2019-03-31 11:00:00 10.7 6 Norte 13 Norte -- -- -- 84
2019-03-31 10:00:00 10.5 0 Calma 5 Noroeste -- -- -- 84
2019-03-31 09:00:00 10.5 0 Calma 10 Norte -- -- -- 84
2019-03-31 08:00:00 10.3 0 Calma 5 Sudoeste -- -- -- 83
2019-03-31 07:00:00 10.1 3 Sudoeste 5 Sudoeste -- -- -- 80
2019-03-31 06:00:00 10.1 0 Calma 10 Sur -- -- -- 75
2019-03-31 05:00:00 10 6 Sudoeste 12 Sudoeste -- -- -- 76
2019-03-31 03:00:00 7.7 0 Calma 5 Sudoeste -- -- -- 80
2019-03-31 01:00:00 8.3 0 Calma 8 Sudoeste -- -- -- 78
2019-03-31 00:00:00 8.6 0 Calma 6 Sudoeste -- -- -- 78
2019-03-30 23:00:00 8.3 0 Calma 8 Sudoeste -- -- -- 75
2019-03-30 22:00:00 10.2 4 Sudoeste 6 Sudoeste -- -- -- 72
2019-03-30 21:00:00 10.6 3 Nordeste 5 Nordeste -- -- -- 68
2019-03-30 20:00:00 11.4 0 Calma 7 Nordeste -- -- -- 63
2019-03-30 19:00:00 12.8 4 Este 18 Nordeste -- -- -- 57
2019-03-30 18:00:00 14.2 9 Este 22 Este -- -- -- 50
2019-03-30 17:00:00 15.4 10 Este 22 Este -- -- -- 50
2019-03-30 16:00:00 16 10 Este 23 Este -- -- -- 50
2019-03-30 15:00:00 14.9 10 Nordeste 21 Este -- -- -- 55
2019-03-30 14:00:00 14 9 Nordeste 18 Este -- -- -- 57
2019-03-30 13:00:00 13.8 11 Nordeste 25 Nordeste -- -- -- 58
2019-03-30 12:00:00 14.4 12 Nordeste 22 Nordeste -- -- -- 58
2019-03-30 11:00:00 13.9 9 Nordeste 18 Nordeste -- -- -- 58
2019-03-30 10:00:00 14.5 2 Noroeste 10 Noroeste -- -- -- 58
2019-03-30 09:00:00 11.3 6 Sudoeste 13 Sudoeste -- -- -- 69
2019-03-30 08:00:00 8.9 5 Sudoeste 10 Sudoeste -- -- -- 79
2019-03-30 07:00:00 8 5 Sudoeste 12 Sudoeste -- -- -- 80
2019-03-30 06:00:00 6.7 0 Calma 13 Sudoeste -- -- -- 78
2019-03-30 05:00:00 7.8 4 Sudoeste 11 Sudoeste -- -- -- 79
2019-03-30 04:00:00 7.7 3 Sudoeste 9 Sudoeste -- -- -- 79
2019-03-30 03:00:00 8.9 4 Sudoeste 10 Sudoeste -- -- -- 78
2019-03-30 02:00:00 8.9 5 Sudoeste 12 Sudoeste -- -- -- 79
2019-03-30 01:00:00 8.6 5 Sudoeste 11 Sudoeste -- -- -- 78
2019-03-30 00:00:00 9.3 5 Sudoeste 9 Sudoeste -- -- -- 78
2019-03-29 23:00:00 9.2 0 Calma 6 Sudoeste -- -- -- 76
2019-03-29 22:00:00 9.4 0 Calma 4 Noroeste -- -- -- 74
2019-03-29 21:00:00 9.9 0 Calma 4 Sudeste -- -- -- 69
2019-03-29 20:00:00 11.9 3 Este 8 Este -- -- -- 66
2019-03-29 19:00:00 13.6 6 Este 15 Este -- -- -- 59
2019-03-29 18:00:00 14.6 9 Nordeste 20 Este -- -- -- 54
2019-03-29 17:00:00 15.4 11 Este 26 Este -- -- -- 47
2019-03-29 16:00:00 16.9 11 Este 25 Este -- -- -- 43
2019-03-29 15:00:00 16.7 12 Nordeste 26 Este -- -- -- 44
2019-03-29 14:00:00 16.9 11 Nordeste 23 Este -- -- -- 47
2019-03-29 13:00:00 15.8 12 Este 25 Este -- -- -- 49
2019-03-29 12:00:00 15.7 10 Nordeste 18 Nordeste -- -- -- 50
2019-03-29 11:00:00 16.1 6 Nordeste 15 Nordeste -- -- -- 50
2019-03-29 10:00:00 14.2 0 Calma 17 Sudoeste -- -- -- 58
2019-03-29 09:00:00 11.8 6 Sudoeste 16 Sudoeste -- -- -- 65
2019-03-29 08:00:00 9.2 3 Sudoeste 10 Sudoeste -- -- -- 81
2019-03-29 07:00:00 4.9 0 Calma 6 Sudoeste -- -- -- 82
2019-03-29 06:00:00 6.7 3 Sudoeste 10 Sudoeste -- -- -- 82
2019-03-29 05:00:00 6.5 3 Sudoeste 9 Sudoeste -- -- -- 82
2019-03-29 04:00:00 7.2 0 Calma 9 Sudoeste -- -- -- 81
2019-03-29 03:00:00 6.7 3 Sudoeste 8 Sudoeste -- -- -- 82
2019-03-29 02:00:00 7 0 Calma 8 Sudoeste -- -- -- 81
2019-03-29 01:00:00 7.8 0 Calma 8 Sur -- -- -- 81
2019-03-29 00:00:00 8.3 3 Sudoeste 6 Sudoeste -- -- -- 79
2019-03-28 23:00:00 8.9 0 Calma 4 Noroeste -- -- -- 76
2019-03-28 22:00:00 9.6 2 Noroeste 6 Este -- -- -- 76
2019-03-28 21:00:00 10.3 5 Este 10 Este -- -- -- 75
2019-03-28 20:00:00 11.7 6 Este 19 Sudeste -- -- -- 70
2019-03-28 19:00:00 13.7 11 Este 26 Este -- -- -- 58
2019-03-28 18:00:00 15.2 11 Este 25 Este -- -- -- 47
2019-03-28 17:00:00 16.5 13 Este 25 Este -- -- -- 34
2019-03-28 16:00:00 17.7 12 Este 26 Este -- -- -- 29
2019-03-28 15:00:00 17.9 11 Este 27 Sudeste -- -- -- 27
2019-03-28 14:00:00 18.4 13 Este 23 Este -- -- -- 28
2019-03-28 13:00:00 18.6 13 Nordeste 23 Nordeste -- -- -- 26
2019-03-28 12:00:00 18.7 5 Nordeste 13 Sudeste -- -- -- 26
2019-03-28 11:00:00 17.1 0 Calma 19 Sudoeste -- -- -- 35
2019-03-28 10:00:00 13.5 10 Sudoeste 24 Sudoeste -- -- -- 41
2019-03-28 09:00:00 10.7 9 Sudoeste 21 Sudoeste -- -- -- 47
2019-03-28 08:00:00 8.9 9 Sudoeste 21 Sudoeste -- -- -- 50
2019-03-28 07:00:00 7.4 8 Sudoeste 19 Sudoeste -- -- -- 54
2019-03-28 06:00:00 6.7 8 Sudoeste 16 Sudoeste -- -- -- 57
2019-03-28 05:00:00 7.3 5 Sudoeste 14 Sudoeste -- -- -- 58
2019-03-28 04:00:00 7.2 5 Sudoeste 12 Sudoeste -- -- -- 58
2019-03-28 03:00:00 8.1 4 Sudoeste 13 Sudoeste -- -- -- 61
2019-03-28 02:00:00 8 6 Sudoeste 13 Sudoeste -- -- -- 62
2019-03-28 01:00:00 8.4 8 Sudoeste 13 Sudoeste -- -- -- 62
2019-03-28 00:00:00 5.7 4 Sudoeste 10 Sudoeste -- -- -- 74
2019-03-27 23:00:00 6.4 3 Sudoeste 9 Sudoeste -- -- -- 74
2019-03-27 22:00:00 7.7 0 Calma 4 Nordeste -- -- -- 68
2019-03-27 21:00:00 9.2 3 Nordeste 6 Este -- -- -- 62
2019-03-27 20:00:00 11.2 5 Este 18 Este -- -- -- 57
2019-03-27 19:00:00 13.7 10 Este 22 Sudeste -- -- -- 45
2019-03-27 18:00:00 15 11 Este 24 Este -- -- -- 39
2019-03-27 17:00:00 16.4 12 Este 23 Este -- -- -- 32
2019-03-27 16:00:00 17.1 12 Este 23 Nordeste -- -- -- 29
2019-03-27 15:00:00 17.4 10 Este 42 Nordeste -- -- -- 29
2019-03-27 14:00:00 18.1 10 Este 25 Este -- -- -- 29
2019-03-27 13:00:00 17.9 9 Nordeste 23 Este -- -- -- 29
2019-03-27 12:00:00 17.5 3 Nordeste 11 Nordeste -- -- -- 34
2019-03-27 11:00:00 15.9 3 Norte 10 Sudoeste -- -- -- 39
2019-03-27 10:00:00 13.3 4 Sudoeste 18 Sudoeste -- -- -- 48
2019-03-27 09:00:00 10.7 9 Sudoeste 19 Sudoeste -- -- -- 60
2019-03-27 08:00:00 8.2 5 Sudoeste 19 Sudoeste -- -- -- 71
2019-03-27 07:00:00 7.4 9 Sudoeste 16 Sudoeste -- -- -- 73
2019-03-27 06:00:00 7 7 Sudoeste 14 Sudoeste -- -- -- 75
2019-03-27 05:00:00 5.2 4 Sudoeste 11 Sudoeste -- -- -- 81
2019-03-27 04:00:00 4.8 5 Sudoeste 9 Sudoeste -- -- -- 78
2019-03-27 03:00:00 5.7 4 Sudoeste 10 Sudoeste -- -- -- 76
2019-03-27 02:00:00 5.1 5 Sudoeste 11 Sudoeste -- -- -- 78
2019-03-27 01:00:00 6.5 3 Sudoeste 7 Sudoeste -- -- -- 75
2019-03-27 00:00:00 7.5 0 Calma 4 Sudoeste -- -- -- 72